createdAt,value
2023-04-02T00:01:37.453Z,100.00
2023-04-02T00:04:14.811Z,100.00
2023-04-02T00:06:46.301Z,100.00
2023-04-02T00:09:14.588Z,100.00
2023-04-02T00:11:50.031Z,100.00
2023-04-02T00:14:33.371Z,100.00
2023-04-02T00:17:05.765Z,100.00
2023-04-02T00:19:57.989Z,100.00
2023-04-02T00:22:34.867Z,100.00
2023-04-02T00:25:12.790Z,100.00
2023-04-02T00:27:43.043Z,100.00
2023-04-02T00:30:15.703Z,100.00
2023-04-02T00:32:44.261Z,100.00
2023-04-02T00:35:22.877Z,100.00
2023-04-02T00:37:51.772Z,100.00
2023-04-02T00:40:24.993Z,100.00
2023-04-02T00:42:58.131Z,100.00
2023-04-02T00:45:31.779Z,100.00
2023-04-02T00:48:16.951Z,100.00
2023-04-02T00:50:46.301Z,100.00
2023-04-02T00:53:25.898Z,100.00
2023-04-02T00:55:57.395Z,100.00
2023-04-02T00:58:35.673Z,100.00
2023-04-02T01:01:04.749Z,100.00
2023-04-02T01:03:38.125Z,100.00
2023-04-02T01:06:16.950Z,100.00
2023-04-02T01:08:57.371Z,100.00
2023-04-02T01:11:46.815Z,100.00
2023-04-02T01:14:39.374Z,100.00
2023-04-02T01:17:18.418Z,100.00
2023-04-02T01:20:11.462Z,100.00
2023-04-02T01:23:18.430Z,100.00
2023-04-02T01:26:22.801Z,100.00
2023-04-02T01:29:01.575Z,100.00
2023-04-02T01:31:33.245Z,100.00
2023-04-02T01:34:07.587Z,100.00
2023-04-02T01:37:07.053Z,100.00
2023-04-02T01:40:25.378Z,100.00
2023-04-02T01:43:26.672Z,100.00
2023-04-02T01:45:58.569Z,100.00
2023-04-02T01:48:30.379Z,100.00
2023-04-02T01:51:00.922Z,100.00
2023-04-02T01:53:31.216Z,100.00
2023-04-02T01:56:02.685Z,100.00
2023-04-02T01:58:33.553Z,100.00
2023-04-02T02:01:13.566Z,100.00
2023-04-02T02:03:44.607Z,100.00
2023-04-02T02:06:16.060Z,100.00
2023-04-02T02:08:53.416Z,100.00
2023-04-02T02:11:27.589Z,100.00
2023-04-02T02:14:22.674Z,100.00
2023-04-02T02:16:53.566Z,100.00
2023-04-02T02:19:40.330Z,100.00
2023-04-02T02:22:31.667Z,100.00
2023-04-02T02:25:06.549Z,100.00
2023-04-02T02:27:48.559Z,100.00
2023-04-02T02:30:38.703Z,100.00
2023-04-02T02:33:26.472Z,100.00
2023-04-02T02:36:04.380Z,100.00
2023-04-02T02:38:54.688Z,100.00
2023-04-02T02:41:57.739Z,100.00
2023-04-02T02:44:29.976Z,100.00
2023-04-02T02:47:07.059Z,100.00
2023-04-02T02:49:41.834Z,100.00
2023-04-02T02:52:10.145Z,100.00
2023-04-02T02:54:45.177Z,100.00
2023-04-02T02:57:19.949Z,100.00
2023-04-02T02:59:50.280Z,100.00
2023-04-02T03:02:19.176Z,100.00
2023-04-02T03:04:53.087Z,100.00
2023-04-02T03:07:25.718Z,100.00
2023-04-02T03:10:19.539Z,100.00
2023-04-02T03:13:33.253Z,100.00
2023-04-02T03:16:12.257Z,100.00
2023-04-02T03:18:54.061Z,100.00
2023-04-02T03:21:36.867Z,100.00
2023-04-02T03:24:34.729Z,100.00
2023-04-02T03:27:18.195Z,100.00
2023-04-02T03:30:04.064Z,100.00
2023-04-02T03:32:40.395Z,100.00
2023-04-02T03:35:29.043Z,100.00
2023-04-02T03:38:34.164Z,100.00
2023-04-02T03:41:22.852Z,100.00
2023-04-02T03:44:00.677Z,100.00
2023-04-02T03:46:47.405Z,100.00
2023-04-02T03:49:26.863Z,100.00
2023-04-02T03:52:13.747Z,100.00
2023-04-02T03:54:54.178Z,100.00
2023-04-02T03:57:34.712Z,100.00
2023-04-02T04:00:13.727Z,100.00
2023-04-02T04:02:55.203Z,100.00
2023-04-02T04:05:32.634Z,100.00
2023-04-02T04:08:32.902Z,100.00
2023-04-02T04:11:12.655Z,100.00
2023-04-02T04:13:51.224Z,100.00
2023-04-02T04:16:28.718Z,100.00
2023-04-02T04:19:07.042Z,100.00
2023-04-02T04:21:38.247Z,100.00
2023-04-02T04:24:17.445Z,100.00
2023-04-02T04:27:33.727Z,100.00
2023-04-02T04:30:14.840Z,100.00
2023-04-02T04:32:58.645Z,100.00
2023-04-02T04:35:37.612Z,100.00
2023-04-02T04:38:14.476Z,100.00
2023-04-02T04:40:54.370Z,100.00
2023-04-02T04:43:52.872Z,100.00
2023-04-02T04:47:02.252Z,100.00
2023-04-02T04:49:38.555Z,100.00
2023-04-02T04:52:24.937Z,100.00
2023-04-02T04:58:46.232Z,100.00
2023-04-02T05:01:44.312Z,100.00
2023-04-02T05:04:43.555Z,100.00
2023-04-02T05:07:26.322Z,100.00
2023-04-02T05:10:07.171Z,100.00
2023-04-02T05:13:15.009Z,100.00
2023-04-02T05:16:39.886Z,100.00
2023-04-02T05:19:38.319Z,100.00
2023-04-02T05:23:03.336Z,100.00
2023-04-02T05:25:34.216Z,100.00
2023-04-02T05:28:33.653Z,100.00
2023-04-02T05:31:32.886Z,100.00
2023-04-02T05:34:03.750Z,100.00
2023-04-02T05:36:34.476Z,100.00
2023-04-02T05:39:08.891Z,100.00
2023-04-02T05:41:50.132Z,100.00
2023-04-02T05:44:28.540Z,100.00
2023-04-02T05:47:08.340Z,100.00
2023-04-02T05:49:50.746Z,100.00
2023-04-02T05:52:32.629Z,100.00
2023-04-02T05:55:02.335Z,100.00
2023-04-02T05:57:46.864Z,100.00
2023-04-02T06:01:20.887Z,100.00
2023-04-02T06:04:20.956Z,100.00
2023-04-02T06:07:35.294Z,100.00
2023-04-02T06:10:25.730Z,100.00
2023-04-02T06:13:07.611Z,100.00
2023-04-02T06:15:38.773Z,100.00
2023-04-02T06:18:20.670Z,100.00
2023-04-02T06:20:49.970Z,100.00
2023-04-02T06:23:47.144Z,100.00
2023-04-02T06:27:03.053Z,100.00
2023-04-02T06:29:42.628Z,100.00
2023-04-02T06:32:12.861Z,100.00
2023-04-02T06:34:43.252Z,100.00
2023-04-02T06:37:41.995Z,100.00
2023-04-02T06:40:41.294Z,100.00
2023-04-02T06:43:53.131Z,100.00
2023-04-02T06:46:51.067Z,100.00
2023-04-02T06:49:26.823Z,100.00
2023-04-02T06:51:59.926Z,100.00
2023-04-02T06:54:29.308Z,100.00
2023-04-02T06:57:20.418Z,100.00
2023-04-02T07:00:43.189Z,100.00
2023-04-02T07:03:32.693Z,100.00
2023-04-02T07:06:03.642Z,100.00
2023-04-02T07:08:33.991Z,100.00
2023-04-02T07:11:02.363Z,100.00
2023-04-02T07:13:30.876Z,100.00
2023-04-02T07:15:59.194Z,100.00
2023-04-02T07:18:31.736Z,100.00
2023-04-02T07:21:00.758Z,100.00
2023-04-02T07:23:29.626Z,100.00
2023-04-02T07:25:58.530Z,100.00
2023-04-02T07:28:26.985Z,100.00
2023-04-02T07:30:55.696Z,100.00
2023-04-02T07:33:27.980Z,100.00
2023-04-02T07:35:58.514Z,100.00
2023-04-02T07:38:29.080Z,100.00
2023-04-02T07:40:58.600Z,100.00
2023-04-02T07:43:27.774Z,100.00
2023-04-02T07:45:57.914Z,100.00
2023-04-02T07:48:27.449Z,100.00
2023-04-02T07:50:58.661Z,100.00
2023-04-02T07:53:38.740Z,100.00
2023-04-02T07:56:14.975Z,100.00
2023-04-02T07:58:45.096Z,100.00
2023-04-02T08:01:20.292Z,100.00
2023-04-02T08:03:52.375Z,100.00
2023-04-02T08:06:49.216Z,100.00
2023-04-02T08:09:20.701Z,100.00
2023-04-02T08:11:51.439Z,100.00
2023-04-02T08:14:25.136Z,100.00
2023-04-02T08:16:56.705Z,100.00
2023-04-02T08:19:26.809Z,100.00
2023-04-02T08:21:58.424Z,100.00
2023-04-02T08:24:30.317Z,100.00
2023-04-02T08:27:01.059Z,100.00
2023-04-02T08:29:32.458Z,100.00
2023-04-02T08:32:02.304Z,100.00
2023-04-02T08:34:32.690Z,100.00
2023-04-02T08:37:03.076Z,100.00
2023-04-02T08:39:36.593Z,100.00
2023-04-02T08:42:35.272Z,100.00
2023-04-02T08:45:24.970Z,100.00
2023-04-02T08:47:57.568Z,100.00
2023-04-02T08:50:42.436Z,100.00
2023-04-02T08:53:31.199Z,100.00
2023-04-02T08:56:26.104Z,100.00
2023-04-02T08:59:01.745Z,100.00
2023-04-02T09:02:25.259Z,100.00
2023-04-02T09:04:58.481Z,100.00
2023-04-02T09:07:29.667Z,100.00
2023-04-02T09:10:00.338Z,100.00
2023-04-02T09:13:05.668Z,100.00
2023-04-02T09:15:38.702Z,100.00
2023-04-02T09:18:19.676Z,100.00
2023-04-02T09:20:50.273Z,100.00
2023-04-02T09:23:27.356Z,100.00
2023-04-02T09:26:04.184Z,100.00
2023-04-02T09:28:34.329Z,100.00
2023-04-02T09:31:38.693Z,100.00
2023-04-02T09:34:33.213Z,100.00
2023-04-02T09:37:20.428Z,99.81
2023-04-02T09:39:51.260Z,99.53
2023-04-02T09:42:35.020Z,98.35
2023-04-02T09:45:14.088Z,97.82
2023-04-02T09:47:44.039Z,97.83
2023-04-02T09:50:21.699Z,97.86
2023-04-02T09:52:59.147Z,97.78
2023-04-02T09:55:31.259Z,97.67
2023-04-02T09:58:15.879Z,97.35
2023-04-02T10:00:54.414Z,97.28
2023-04-02T10:03:33.117Z,97.46
2023-04-02T10:06:07.681Z,97.99
2023-04-02T10:08:38.703Z,98.15
2023-04-02T10:14:43.318Z,98.17
2023-04-02T10:17:36.387Z,98.52
2023-04-02T10:20:26.852Z,97.98
2023-04-02T10:22:55.175Z,97.73
2023-04-02T10:25:31.160Z,97.53
2023-04-02T10:28:19.535Z,97.78
2023-04-02T10:31:18.527Z,97.99
2023-04-02T10:33:54.572Z,97.41
2023-04-02T10:37:10.687Z,97.19
2023-04-02T10:39:50.319Z,97.30
2023-04-02T10:42:36.090Z,97.41
2023-04-02T10:45:38.087Z,97.33
2023-04-02T10:48:22.859Z,97.08
2023-04-02T10:51:36.044Z,97.20
2023-04-02T10:54:35.696Z,97.28
2023-04-02T10:57:29.523Z,96.89
2023-04-02T11:00:15.916Z,97.02
2023-04-02T11:03:08.173Z,96.52
2023-04-02T11:05:46.065Z,96.74
2023-04-02T11:08:27.068Z,96.91
2023-04-02T11:11:09.851Z,97.05
2023-04-02T11:14:09.654Z,96.79
2023-04-02T11:16:42.676Z,96.86
2023-04-02T11:19:15.943Z,96.77
2023-04-02T11:22:02.084Z,97.04
2023-04-02T11:24:54.786Z,97.20
2023-04-02T11:27:29.712Z,97.41
2023-04-02T11:30:16.368Z,96.99
2023-04-02T11:32:49.761Z,96.56
2023-04-02T11:35:38.576Z,96.04
2023-04-02T11:38:10.107Z,95.66
2023-04-02T11:40:47.887Z,95.24
2023-04-02T11:43:34.581Z,94.67
2023-04-02T11:46:04.768Z,94.67
2023-04-02T11:48:36.614Z,94.81
2023-04-02T11:51:23.099Z,94.81
2023-04-02T11:53:58.318Z,94.54
2023-04-02T11:56:38.802Z,94.45
2023-04-02T11:59:44.125Z,94.45
2023-04-02T12:03:03.517Z,94.70
2023-04-02T12:05:43.817Z,95.08
2023-04-02T12:08:33.466Z,95.42
2023-04-02T12:11:03.414Z,95.56
2023-04-02T12:13:49.206Z,95.66
2023-04-02T12:16:18.224Z,95.73
2023-04-02T12:18:56.217Z,95.47
2023-04-02T12:21:29.072Z,95.48
2023-04-02T12:24:01.908Z,95.41
2023-04-02T12:26:37.469Z,94.81
2023-04-02T12:29:28.915Z,94.81
2023-04-02T12:31:59.153Z,94.23
2023-04-02T12:34:30.195Z,94.01
2023-04-02T12:37:03.073Z,94.24
2023-04-02T12:39:36.403Z,94.23
2023-04-02T12:42:05.420Z,94.05
2023-04-02T12:44:33.872Z,94.00
2023-04-02T12:47:04.563Z,93.77
2023-04-02T12:49:40.243Z,93.59
2023-04-02T12:52:14.566Z,93.74
2023-04-02T12:54:56.078Z,94.18
2023-04-02T12:57:30.285Z,94.21
2023-04-02T13:00:22.003Z,93.91
2023-04-02T13:03:21.426Z,94.20
2023-04-02T13:05:57.460Z,94.27
2023-04-02T13:08:30.804Z,93.98
2023-04-02T13:11:02.946Z,94.05
2023-04-02T13:13:40.656Z,94.47
2023-04-02T13:16:15.127Z,94.46
2023-04-02T13:18:47.265Z,94.57
2023-04-02T13:21:29.777Z,94.28
2023-04-02T13:23:58.124Z,94.57
2023-04-02T13:26:29.361Z,94.63
2023-04-02T13:29:18.057Z,94.38
2023-04-02T13:31:46.474Z,94.31
2023-04-02T13:34:14.973Z,93.96
2023-04-02T13:36:43.458Z,93.87
2023-04-02T13:39:12.110Z,93.45
2023-04-02T13:41:51.465Z,93.42
2023-04-02T13:44:23.236Z,93.34
2023-04-02T13:46:53.787Z,93.48
2023-04-02T13:49:24.230Z,93.72
2023-04-02T13:51:58.023Z,94.02
2023-04-02T13:54:53.108Z,93.80
2023-04-02T13:57:21.660Z,93.99
2023-04-02T13:59:50.134Z,94.01
2023-04-02T14:02:23.615Z,94.05
2023-04-02T14:05:38.243Z,94.06
2023-04-02T14:08:21.888Z,94.23
2023-04-02T14:11:36.092Z,94.26
2023-04-02T14:14:19.075Z,94.16
2023-04-02T14:17:19.683Z,94.05
2023-04-02T14:20:21.791Z,94.18
2023-04-02T14:23:23.960Z,93.98
2023-04-02T14:26:14.463Z,94.09
2023-04-02T14:29:13.588Z,93.98
2023-04-02T14:31:59.848Z,94.15
2023-04-02T14:35:06.641Z,94.15
2023-04-02T14:38:20.170Z,94.08
2023-04-02T14:40:56.940Z,94.15
2023-04-02T14:43:31.606Z,93.85
2023-04-02T14:46:06.795Z,93.90
2023-04-02T14:49:07.251Z,94.06
2023-04-02T14:51:47.227Z,94.12
2023-04-02T14:54:38.932Z,93.98
2023-04-02T14:57:18.856Z,93.86
2023-04-02T14:59:57.034Z,94.04
2023-04-02T15:02:49.133Z,94.19
2023-04-02T15:05:40.128Z,94.39
2023-04-02T15:08:30.602Z,94.25
2023-04-02T15:11:27.421Z,94.15
2023-04-02T15:14:12.226Z,94.34
2023-04-02T15:16:45.194Z,94.32
2023-04-02T15:19:18.060Z,94.31
2023-04-02T15:22:11.683Z,94.36
2023-04-02T15:25:07.815Z,94.35
2023-04-02T15:28:01.632Z,94.63
2023-04-02T15:31:03.711Z,94.60
2023-04-02T15:33:37.972Z,94.47
2023-04-02T15:36:24.257Z,94.39
2023-04-02T15:39:19.750Z,94.15
2023-04-02T15:42:16.093Z,94.23
2023-04-02T15:45:09.520Z,94.31
2023-04-02T15:48:15.460Z,94.25
2023-04-02T15:50:49.685Z,94.13
2023-04-02T15:53:40.042Z,94.29
2023-04-02T15:56:25.201Z,94.08
2023-04-02T15:59:31.561Z,94.17
2023-04-02T16:02:11.517Z,93.95
2023-04-02T16:04:54.731Z,93.79
2023-04-02T16:07:54.136Z,93.79
2023-04-02T16:10:41.173Z,93.89
2023-04-02T16:13:36.975Z,93.92
2023-04-02T16:16:12.436Z,93.93
2023-04-02T16:18:47.293Z,93.99
2023-04-02T16:21:23.699Z,93.97
2023-04-02T16:23:52.098Z,93.97
2023-04-02T16:26:47.630Z,94.01
2023-04-02T16:29:55.423Z,93.75
2023-04-02T16:32:56.976Z,93.84
2023-04-02T16:36:25.623Z,93.67
2023-04-02T16:39:07.990Z,93.67
2023-04-02T16:42:10.530Z,93.71
2023-04-02T16:45:00.386Z,93.66
2023-04-02T16:48:12.278Z,93.46
2023-04-02T16:51:07.038Z,93.63
2023-04-02T16:54:19.335Z,93.60
2023-04-02T16:57:19.241Z,93.72
2023-04-02T17:00:30.692Z,93.93
2023-04-02T17:03:35.978Z,94.34
2023-04-02T17:06:13.423Z,94.57
2023-04-02T17:09:03.148Z,94.85
2023-04-02T17:11:56.908Z,94.92
2023-04-02T17:14:41.263Z,95.16
2023-04-02T17:17:14.654Z,95.20
2023-04-02T17:19:44.727Z,95.36
2023-04-02T17:22:20.197Z,95.33
2023-04-02T17:25:04.455Z,95.60
2023-04-02T17:27:43.390Z,95.59
2023-04-02T17:30:44.820Z,95.77
2023-04-02T17:33:16.642Z,95.93
2023-04-02T17:36:06.369Z,96.23
2023-04-02T17:38:56.223Z,96.41
2023-04-02T17:42:09.997Z,96.50
2023-04-02T17:45:15.516Z,96.53
2023-04-02T17:47:55.862Z,96.57
2023-04-02T17:50:39.663Z,96.70
2023-04-02T17:53:31.131Z,96.95
2023-04-02T17:56:26.697Z,96.88
2023-04-02T17:59:27.161Z,96.84
2023-04-02T18:02:42.574Z,97.01
2023-04-02T18:05:25.024Z,97.04
2023-04-02T18:08:49.972Z,96.92
2023-04-02T18:12:21.870Z,96.91
2023-04-02T18:15:08.304Z,96.74
2023-04-02T18:17:55.487Z,96.92
2023-04-02T18:21:17.366Z,96.85
2023-04-02T18:24:16.477Z,96.94
2023-04-02T18:27:14.372Z,96.72
2023-04-02T18:30:00.113Z,96.38
2023-04-02T18:32:58.511Z,96.36
2023-04-02T18:35:59.766Z,96.06
2023-04-02T18:38:47.745Z,95.90
2023-04-02T18:41:31.485Z,95.55
2023-04-02T18:44:10.073Z,95.31
2023-04-02T18:46:58.106Z,95.19
2023-04-02T18:49:42.863Z,94.55
2023-04-02T18:52:17.545Z,94.66
2023-04-02T18:54:52.649Z,94.67
2023-04-02T18:57:34.132Z,94.73
2023-04-02T19:00:16.995Z,94.75
2023-04-02T19:03:06.687Z,94.67
2023-04-02T19:05:35.551Z,94.59
2023-04-02T19:08:12.531Z,94.19
2023-04-02T19:10:45.429Z,94.46
2023-04-02T19:13:20.542Z,94.27
2023-04-02T19:15:54.733Z,94.24
2023-04-02T19:19:14.562Z,94.14
2023-04-02T19:22:13.754Z,94.19
2023-04-02T19:25:14.795Z,94.23
2023-04-02T19:28:09.551Z,94.25
2023-04-02T19:30:58.978Z,94.22
2023-04-02T19:33:51.710Z,94.27
2023-04-02T19:36:42.759Z,94.26
2023-04-02T19:39:20.075Z,94.07
2023-04-02T19:42:17.696Z,94.21
2023-04-02T19:44:50.586Z,93.87
2023-04-02T19:47:20.563Z,93.86
2023-04-02T19:49:48.976Z,93.75
2023-04-02T19:52:17.645Z,93.55
2023-04-02T19:54:45.990Z,93.54
2023-04-02T19:57:15.680Z,93.30
2023-04-02T19:59:44.079Z,93.38
2023-04-02T20:02:12.642Z,93.09
2023-04-02T20:04:42.505Z,92.93
2023-04-02T20:07:11.045Z,92.98
2023-04-02T20:09:39.367Z,92.87
2023-04-02T20:12:07.836Z,92.88
2023-04-02T20:14:36.222Z,92.77
2023-04-02T20:17:04.688Z,92.51
2023-04-02T20:19:33.123Z,92.21
2023-04-02T20:22:01.521Z,92.16
2023-04-02T20:24:29.975Z,91.73
2023-04-02T20:26:58.405Z,91.31
2023-04-02T20:29:29.387Z,90.69
2023-04-02T20:31:57.865Z,90.65
2023-04-02T20:34:26.571Z,90.60
2023-04-02T20:36:55.051Z,90.42
2023-04-02T20:39:24.137Z,89.85
2023-04-02T20:41:52.586Z,89.76
2023-04-02T20:44:21.744Z,89.47
2023-04-02T20:46:50.076Z,89.59
2023-04-02T20:49:18.408Z,89.49
2023-04-02T20:51:47.907Z,88.91
2023-04-02T20:54:16.974Z,88.73
2023-04-02T20:56:45.593Z,88.72
2023-04-02T20:59:14.050Z,88.71
2023-04-02T21:01:42.712Z,88.83
2023-04-02T21:04:11.765Z,88.73
2023-04-02T21:06:41.486Z,88.42
2023-04-02T21:09:17.252Z,88.65
2023-04-02T21:11:46.315Z,88.46
2023-04-02T21:14:14.705Z,88.27
2023-04-02T21:16:43.104Z,88.04
2023-04-02T21:19:11.628Z,88.08
2023-04-02T21:21:40.644Z,87.80
2023-04-02T21:24:09.961Z,87.42
2023-04-02T21:26:41.272Z,87.32
2023-04-02T21:29:11.909Z,87.32
2023-04-02T21:31:41.622Z,87.12
2023-04-02T21:34:16.998Z,86.90
2023-04-02T21:36:47.545Z,86.83
2023-04-02T21:39:18.506Z,86.96
2023-04-02T21:41:51.538Z,86.91
2023-04-02T21:44:22.429Z,86.92
2023-04-02T21:46:53.988Z,86.88
2023-04-02T21:49:23.578Z,86.72
2023-04-02T21:51:52.282Z,86.54
2023-04-02T21:54:21.181Z,86.50
2023-04-02T21:56:50.332Z,86.46
2023-04-02T21:59:19.019Z,86.44
2023-04-02T22:01:50.515Z,86.24
2023-04-02T22:04:25.189Z,86.21
2023-04-02T22:06:54.121Z,86.19
2023-04-02T22:09:25.715Z,85.97
2023-04-02T22:12:01.940Z,86.12
2023-04-02T22:14:30.452Z,86.36
2023-04-02T22:16:59.118Z,86.21
2023-04-02T22:19:28.009Z,86.04
2023-04-02T22:21:56.832Z,86.22
2023-04-02T22:24:25.578Z,86.02
2023-04-02T22:26:54.428Z,85.82
2023-04-02T22:29:22.856Z,85.92
2023-04-02T22:31:51.487Z,85.78
2023-04-02T22:34:19.932Z,85.83
2023-04-02T22:36:48.262Z,85.60
2023-04-02T22:39:17.131Z,85.42
2023-04-02T22:41:45.799Z,85.54
2023-04-02T22:44:15.442Z,85.66
2023-04-02T22:46:44.037Z,85.29
2023-04-02T22:49:12.740Z,85.36
2023-04-02T22:51:41.105Z,85.27
2023-04-02T22:54:09.589Z,85.28
2023-04-02T22:56:38.120Z,85.44
2023-04-02T22:59:06.656Z,85.24
2023-04-02T23:01:36.489Z,85.25
2023-04-02T23:04:05.415Z,85.26
2023-04-02T23:06:34.270Z,85.33
2023-04-02T23:09:02.962Z,85.24
2023-04-02T23:11:31.460Z,85.33
2023-04-02T23:14:00.072Z,85.21
2023-04-02T23:16:29.845Z,85.17
2023-04-02T23:18:59.053Z,85.24
2023-04-02T23:21:27.788Z,85.21
2023-04-02T23:23:56.548Z,84.92
2023-04-02T23:26:31.515Z,84.99
2023-04-02T23:29:00.716Z,84.89
2023-04-02T23:31:30.197Z,85.02
2023-04-02T23:33:58.823Z,84.71
2023-04-02T23:36:31.237Z,84.81
2023-04-02T23:39:09.397Z,84.87
2023-04-02T23:41:41.385Z,84.92
2023-04-02T23:44:10.302Z,84.75
2023-04-02T23:46:38.807Z,84.59
2023-04-02T23:49:10.112Z,84.45
2023-04-02T23:51:39.132Z,84.55
2023-04-02T23:54:07.717Z,84.60
2023-04-02T23:56:36.140Z,84.62
2023-04-02T23:59:04.709Z,84.62
